Ackworth, IA

6:13 PM CDT on October 24, 2014 (GMT -0500)
Rural Pleasantville | Change Station
CLOSE
Current Station
Personal Weather Station
Location: Pleasantville, IA
Elevation: 843 ft
Nearby Weather Stations

Elev 843 ft 41.36 °N, 93.27 °W | Updated 4 minutes ago

Mostly Cloudy
Mostly Cloudy
62.8 °F
Feels Like 62.8 °F
N
0.0
Wind Variable Wind from SSW

Today
High -- | Low -- °F
--% Chance of Precip.
Yesterday
High -- | Low -- °F
Precip. -- in
7:35 AM 6:19 PM
New Moon, 1% visible
Pressure 29.90 in
Visibility 5.0 miles
Clouds Few 1300 ft
Dew Point 57 °F
Humidity 81%
Rainfall 0.00 in
Snow Depth Not available.
UV 0 out of 12
Pollen 2.20 out of 12
Air Quality Not available.
Flu Activity Sporadic
METAR KOXV 242255Z AUTO 20006KT 5SM BR FEW013 17/15 A2990 RMK AO2

More Conditions Fewer Conditions

Pressure 29.90 in
Visibility 5.0 miles
Clouds Few 1300 ft
Dew Point 57 °F
Humidity 81%
Rainfall 0.00 in
Snow Depth Not available.
UV 0 out of 12
Pollen 2.20 out of 12
Air Quality Not available.
Flu Activity Sporadic
METAR KOXV 242255Z AUTO 20006KT 5SM BR FEW013 17/15 A2990 RMK AO2

More Conditions Fewer Conditions

10-Day Weather Forecast

Almanac

Astronomy

Oct. 24, 2014 Rise Set
Actual Time 7:35 AM CDT 6:19 PM CDT
Civil Twilight 7:07 AM CDT 6:47 PM CDT
Nautical Twilight 6:35 AM CDT 7:19 PM CDT
Astronomical Twilight 6:03 AM CDT 7:51 PM CDT
Moon 8:15 AM CDT 6:59 PM CDT
Length of Visible Light 11h 40m
Length of Day
10h 43m
Tomorrow will be 2m 33s shorter.
New Moon, 1% of the Moon is Illuminated
Today
New Moon
Oct 30
First Quarter
Nov 6
Full
Nov 14
Last Quarter
Nov 22
New

Today's Extremes

State Highs State Lows

Community

WunderPhotos

Upload Photos

1,764,708 photos uploaded!

Nearby

Snow Depth

Station Depth Elevation
No new snow has been reported.

Earthquake Activity

City Distance Mag. Time & Date
No recent earthquake activity has been reported nearby.
Minimum magnitude displayed is 2.5.

Coastal Water Temperatures

Place Temperature
No Stations Reporting

Nearby Weather Stations